createdAt,value
2022-09-27T00:01:13.491Z,100836.22
2022-09-27T00:03:41.549Z,100834.66
2022-09-27T00:06:10.539Z,100836.69
2022-09-27T00:08:38.770Z,100832.38
2022-09-27T00:11:09.115Z,100832.56
2022-09-27T00:13:37.001Z,100841.03
2022-09-27T00:16:05.802Z,100836.63
2022-09-27T00:18:35.197Z,100845.91
2022-09-27T00:21:07.398Z,100850.63
2022-09-27T00:23:36.697Z,100847.28
2022-09-27T00:26:04.665Z,100840.22
2022-09-27T00:28:32.558Z,100835.72
2022-09-27T00:31:00.742Z,100840.84
2022-09-27T00:33:28.764Z,100840.66
2022-09-27T00:36:05.339Z,100841.31
2022-09-27T00:38:33.199Z,100843.06
2022-09-27T00:41:01.137Z,100843.06
2022-09-27T00:43:44.068Z,100829.53
2022-09-27T00:46:11.958Z,100836.63
2022-09-27T00:48:39.918Z,100824.00
2022-09-27T00:51:09.786Z,100820.25
2022-09-27T00:53:40.041Z,100821.09
2022-09-27T00:56:09.713Z,100795.25
2022-09-27T00:58:38.974Z,100812.28
2022-09-27T01:01:10.534Z,100810.13
2022-09-27T01:03:42.065Z,100826.22
2022-09-27T01:06:11.309Z,100811.38
2022-09-27T01:08:39.406Z,100829.56
2022-09-27T01:11:14.956Z,100818.28
2022-09-27T01:13:46.703Z,100822.22
2022-09-27T01:16:17.887Z,100815.44
2022-09-27T01:18:50.058Z,100812.84
2022-09-27T01:21:51.876Z,100816.50
2022-09-27T01:24:42.246Z,100800.41
2022-09-27T01:27:32.671Z,100810.91
2022-09-27T01:30:14.849Z,100806.13
2022-09-27T01:32:46.448Z,100786.72
2022-09-27T01:35:17.203Z,100801.34
2022-09-27T01:37:49.888Z,100796.56
2022-09-27T01:40:19.759Z,100791.97
2022-09-27T01:42:48.989Z,100805.44
2022-09-27T01:45:21.173Z,100787.53
2022-09-27T01:47:50.919Z,100792.81
2022-09-27T01:50:20.410Z,100786.66
2022-09-27T01:52:50.145Z,100796.44
2022-09-27T01:55:18.515Z,100782.28
2022-09-27T01:57:48.558Z,100796.00
2022-09-27T02:00:16.475Z,100795.41
2022-09-27T02:02:48.524Z,100799.38
2022-09-27T02:05:17.974Z,100801.00
2022-09-27T02:07:47.374Z,100799.72
2022-09-27T02:10:16.994Z,100797.81
2022-09-27T02:12:47.861Z,100797.41
2022-09-27T02:15:16.652Z,100790.22
2022-09-27T02:17:47.925Z,100792.03
2022-09-27T02:20:19.200Z,100792.03
2022-09-27T02:22:49.236Z,100782.41
2022-09-27T02:25:21.743Z,100789.66
2022-09-27T02:27:53.951Z,100787.84
2022-09-27T02:30:22.014Z,100779.03
2022-09-27T02:32:51.263Z,100780.00
2022-09-27T02:35:20.847Z,100774.53
2022-09-27T02:37:48.728Z,100772.31
2022-09-27T02:40:17.001Z,100774.91
2022-09-27T02:42:44.910Z,100773.84
2022-09-27T02:45:13.054Z,100776.22
2022-09-27T02:47:56.988Z,100769.63
2022-09-27T02:50:55.920Z,100757.81
2022-09-27T02:53:30.578Z,100757.72
2022-09-27T02:56:01.787Z,100752.13
2022-09-27T02:58:35.760Z,100752.63
2022-09-27T03:01:06.185Z,100740.81
2022-09-27T03:03:38.276Z,100743.19
2022-09-27T03:06:08.087Z,100742.34
2022-09-27T03:08:35.947Z,100734.06
2022-09-27T03:11:03.815Z,100740.41
2022-09-27T03:13:31.724Z,100731.38
2022-09-27T03:16:01.720Z,100731.31
2022-09-27T03:18:30.147Z,100735.69
2022-09-27T03:20:59.415Z,100739.13
2022-09-27T03:23:27.561Z,100725.81
2022-09-27T03:25:55.431Z,100733.88
2022-09-27T03:28:23.357Z,100729.38
2022-09-27T03:30:51.285Z,100728.41
2022-09-27T03:33:19.635Z,100730.22
2022-09-27T03:35:48.028Z,100716.91
2022-09-27T03:38:17.334Z,100708.00
2022-09-27T03:40:45.186Z,100721.22
2022-09-27T03:43:13.108Z,100706.94
2022-09-27T03:45:41.419Z,100698.91
2022-09-27T03:48:09.365Z,100699.66
2022-09-27T03:50:37.311Z,100699.44
2022-09-27T03:53:05.179Z,100704.81
2022-09-27T03:55:34.646Z,100700.72
2022-09-27T03:58:02.564Z,100708.00
2022-09-27T04:00:32.669Z,100706.31
2022-09-27T04:03:00.564Z,100693.41
2022-09-27T04:05:28.969Z,100677.56
2022-09-27T04:07:57.249Z,100681.19
2022-09-27T04:10:25.508Z,100674.13
2022-09-27T04:12:54.869Z,100684.09
2022-09-27T04:15:22.861Z,100688.59
2022-09-27T04:17:50.744Z,100685.91
2022-09-27T04:20:18.799Z,100689.66
2022-09-27T04:22:46.670Z,100694.47
2022-09-27T04:25:14.716Z,100677.84
2022-09-27T04:27:45.759Z,100688.75
2022-09-27T04:30:15.457Z,100690.69
2022-09-27T04:32:43.455Z,100695.06
2022-09-27T04:35:28.614Z,100689.72
2022-09-27T04:37:56.695Z,100680.06
2022-09-27T04:40:24.723Z,100682.84
2022-09-27T04:42:52.839Z,100675.66
2022-09-27T04:45:22.205Z,100679.28
2022-09-27T04:47:50.905Z,100675.47
2022-09-27T04:50:20.132Z,100666.56
2022-09-27T04:52:51.361Z,100668.19
2022-09-27T04:55:19.413Z,100661.09
2022-09-27T04:57:47.287Z,100654.84
2022-09-27T05:00:15.949Z,100647.56
2022-09-27T05:02:45.398Z,100663.66
2022-09-27T05:05:13.445Z,100664.31
2022-09-27T05:07:41.860Z,100664.97
2022-09-27T05:10:10.313Z,100663.91
2022-09-27T05:12:38.291Z,100662.09
2022-09-27T05:15:07.097Z,100665.53
2022-09-27T05:17:34.973Z,100651.56
2022-09-27T05:20:04.480Z,100662.63
2022-09-27T05:22:32.370Z,100652.66
2022-09-27T05:25:00.254Z,100651.69
2022-09-27T05:27:28.155Z,100646.22
2022-09-27T05:29:57.060Z,100653.31
2022-09-27T05:32:24.944Z,100659.53
2022-09-27T05:34:53.677Z,100659.34
2022-09-27T05:37:22.976Z,100659.34
2022-09-27T05:39:51.033Z,100656.72
2022-09-27T05:42:19.652Z,100648.59
2022-09-27T05:44:47.651Z,100649.44
2022-09-27T05:47:15.744Z,100640.44
2022-09-27T05:49:43.687Z,100637.56
2022-09-27T05:52:15.090Z,100635.63
2022-09-27T05:54:46.130Z,100625.84
2022-09-27T05:57:14.616Z,100624.16
2022-09-27T05:59:42.617Z,100632.94
2022-09-27T06:02:11.546Z,100639.13
2022-09-27T06:04:39.589Z,100635.50
2022-09-27T06:07:07.477Z,100624.47
2022-09-27T06:09:35.497Z,100624.25
2022-09-27T06:12:05.137Z,100643.78
2022-09-27T06:14:35.082Z,100633.59
2022-09-27T06:17:03.670Z,100632.81
2022-09-27T06:19:31.971Z,100620.19
2022-09-27T06:21:59.869Z,100625.53
2022-09-27T06:24:27.741Z,100618.25
2022-09-27T06:26:55.721Z,100623.53
2022-09-27T06:29:25.297Z,100621.78
2022-09-27T06:31:53.179Z,100611.91
2022-09-27T06:34:21.141Z,100636.72
2022-09-27T06:36:51.710Z,100635.88
2022-09-27T06:39:19.838Z,100614.28
2022-09-27T06:41:48.291Z,100637.56
2022-09-27T06:44:16.201Z,100620.53
2022-09-27T06:46:45.905Z,100608.72
2022-09-27T06:49:13.905Z,100611.28
2022-09-27T06:51:42.267Z,100602.16
2022-09-27T06:54:10.239Z,100609.13
2022-09-27T06:56:38.134Z,100604.72
2022-09-27T06:59:23.357Z,100613.19
2022-09-27T07:01:53.657Z,100610.31
2022-09-27T07:04:21.766Z,100591.28
2022-09-27T07:06:49.732Z,100586.78
2022-09-27T07:09:17.747Z,100592.78
2022-09-27T07:11:46.061Z,100585.91
2022-09-27T07:14:14.338Z,100586.06
2022-09-27T07:16:42.237Z,100593.16
2022-09-27T07:19:13.590Z,100593.56
2022-09-27T07:21:41.545Z,100608.63
2022-09-27T07:24:09.658Z,100605.06
2022-09-27T07:26:37.541Z,100604.59
2022-09-27T07:29:05.420Z,100595.59
2022-09-27T07:31:33.933Z,100589.88
2022-09-27T07:34:01.886Z,100594.91
2022-09-27T07:36:31.608Z,100598.13
2022-09-27T07:39:00.612Z,100590.69
2022-09-27T07:41:28.645Z,100594.03
2022-09-27T07:43:57.308Z,100591.50
2022-09-27T07:46:26.055Z,100586.66
2022-09-27T07:48:54.299Z,100587.06
2022-09-27T07:51:22.865Z,100598.81
2022-09-27T07:53:52.475Z,100601.28
2022-09-27T07:56:20.564Z,100604.19
2022-09-27T07:58:48.489Z,100603.56
2022-09-27T08:01:16.522Z,100590.47
2022-09-27T08:03:44.636Z,100592.66
2022-09-27T08:06:12.565Z,100594.94
2022-09-27T08:08:40.594Z,100590.78
2022-09-27T08:11:16.713Z,100602.38
2022-09-27T08:13:44.670Z,100599.06
2022-09-27T08:16:14.337Z,100600.78
2022-09-27T08:18:43.102Z,100607.88
2022-09-27T08:21:11.143Z,100609.81
2022-09-27T08:23:39.214Z,100595.63
2022-09-27T08:26:07.331Z,100604.00
2022-09-27T08:28:37.816Z,100596.94
2022-09-27T08:31:06.168Z,100598.75
2022-09-27T08:33:39.114Z,100588.75
2022-09-27T08:36:12.127Z,100593.59
2022-09-27T08:38:40.133Z,100580.41
2022-09-27T08:41:08.998Z,100597.03
2022-09-27T08:43:42.712Z,100588.88
2022-09-27T08:46:17.233Z,100595.94
2022-09-27T08:48:45.311Z,100596.50
2022-09-27T08:51:13.641Z,100591.13
2022-09-27T08:53:43.049Z,100582.50
2022-09-27T08:56:11.161Z,100591.16
2022-09-27T08:58:42.076Z,100592.16
2022-09-27T09:01:12.989Z,100582.75
2022-09-27T09:03:41.435Z,100574.97
2022-09-27T09:06:12.826Z,100591.41
2022-09-27T09:08:50.721Z,100605.34
2022-09-27T09:11:42.198Z,100599.97
2022-09-27T09:14:27.510Z,100592.31
2022-09-27T09:17:00.635Z,100601.50
2022-09-27T09:19:45.975Z,100593.44
2022-09-27T09:22:21.915Z,100588.69
2022-09-27T09:24:56.824Z,100580.75
2022-09-27T09:27:26.617Z,100580.53
2022-09-27T09:30:07.104Z,100588.88
2022-09-27T09:32:40.332Z,100582.28
2022-09-27T09:35:08.922Z,100585.09
2022-09-27T09:37:38.207Z,100580.59
2022-09-27T09:40:09.270Z,100572.00
2022-09-27T09:42:39.672Z,100564.31
2022-09-27T09:45:16.161Z,100567.59
2022-09-27T09:47:45.546Z,100561.84
2022-09-27T09:50:17.471Z,100558.94
2022-09-27T09:52:46.922Z,100568.34
2022-09-27T09:55:19.211Z,100570.56
2022-09-27T09:58:02.469Z,100576.06
2022-09-27T10:00:31.816Z,100571.44
2022-09-27T10:03:00.527Z,100565.16
2022-09-27T10:05:28.864Z,100574.81
2022-09-27T10:07:58.764Z,100576.66
2022-09-27T10:10:26.731Z,100566.63
2022-09-27T10:12:54.705Z,100558.53
2022-09-27T10:15:23.525Z,100557.66
2022-09-27T10:17:54.052Z,100538.22
2022-09-27T10:20:27.402Z,100552.53
2022-09-27T10:22:56.676Z,100549.72
2022-09-27T10:25:24.873Z,100539.91
2022-09-27T10:27:54.324Z,100529.47
2022-09-27T10:30:27.681Z,100533.91
2022-09-27T10:32:59.032Z,100530.47
2022-09-27T10:35:36.849Z,100529.75
2022-09-27T10:38:25.322Z,100522.06
2022-09-27T10:40:55.565Z,100488.66
2022-09-27T10:43:29.659Z,100521.41
2022-09-27T10:46:02.969Z,100519.34
2022-09-27T10:48:32.383Z,100527.06
2022-09-27T10:51:01.226Z,100521.75
2022-09-27T10:53:29.173Z,100509.81
2022-09-27T10:55:57.774Z,100503.06
2022-09-27T10:58:28.245Z,100496.66
2022-09-27T11:00:57.794Z,100512.41
2022-09-27T11:03:28.998Z,100509.41
2022-09-27T11:05:59.571Z,100496.72
2022-09-27T11:08:32.159Z,100493.81
2022-09-27T11:11:07.846Z,100500.56
2022-09-27T11:13:36.131Z,100500.22
2022-09-27T11:16:27.226Z,100492.53
2022-09-27T11:19:01.176Z,100493.16
2022-09-27T11:21:35.220Z,100494.63
2022-09-27T11:24:10.967Z,100496.63
2022-09-27T11:26:45.401Z,100509.09
2022-09-27T11:29:21.905Z,100505.44
2022-09-27T11:31:55.078Z,100497.59
2022-09-27T11:34:36.515Z,100507.75
2022-09-27T11:37:11.517Z,100497.56
2022-09-27T11:39:44.469Z,100491.44
2022-09-27T11:42:24.663Z,100503.63
2022-09-27T11:45:27.791Z,100492.75
2022-09-27T11:47:51.600Z,100484.53
2022-09-27T11:50:33.924Z,100486.13
2022-09-27T11:53:11.492Z,100496.66
2022-09-27T11:55:46.214Z,100481.72
2022-09-27T11:58:18.885Z,100484.66
2022-09-27T12:00:55.305Z,100477.66
2022-09-27T12:03:56.520Z,100491.75
2022-09-27T12:06:26.711Z,100489.28
2022-09-27T12:09:02.829Z,100493.81
2022-09-27T12:11:32.518Z,100475.69
2022-09-27T12:14:01.136Z,100478.50
2022-09-27T12:16:30.154Z,100483.13
2022-09-27T12:18:58.807Z,100479.16
2022-09-27T12:21:26.649Z,100491.09
2022-09-27T12:23:55.425Z,100481.81
2022-09-27T12:26:27.012Z,100481.06
2022-09-27T12:28:56.951Z,100481.63
2022-09-27T12:31:29.716Z,100472.81
2022-09-27T12:34:02.891Z,100467.03
2022-09-27T12:36:38.394Z,100463.44
2022-09-27T12:39:12.172Z,100456.25
2022-09-27T12:41:44.016Z,100445.66
2022-09-27T12:44:12.112Z,100443.72
2022-09-27T12:46:45.686Z,100455.59
2022-09-27T12:49:15.748Z,100451.19
2022-09-27T12:51:46.170Z,100440.16
2022-09-27T12:54:31.542Z,100433.03
2022-09-27T12:57:04.291Z,100434.72
2022-09-27T12:59:41.675Z,100429.91
2022-09-27T13:02:21.719Z,100418.94
2022-09-27T13:05:00.419Z,100414.97
2022-09-27T13:07:35.869Z,100418.41
2022-09-27T13:10:17.346Z,100420.22
2022-09-27T13:12:50.187Z,100418.19
2022-09-27T13:15:29.027Z,100416.00
2022-09-27T13:17:58.347Z,100425.09
2022-09-27T13:20:53.268Z,100424.28
2022-09-27T13:24:00.817Z,100414.47
2022-09-27T13:26:50.862Z,100416.91
2022-09-27T13:29:30.361Z,100409.44
2022-09-27T13:32:22.608Z,100411.94
2022-09-27T13:34:51.985Z,100411.81
2022-09-27T13:37:45.608Z,100409.88
2022-09-27T13:40:24.263Z,100413.91
2022-09-27T13:43:06.684Z,100415.94
2022-09-27T13:45:37.836Z,100402.19
2022-09-27T13:48:10.097Z,100402.66
2022-09-27T13:50:40.340Z,100386.91
2022-09-27T13:53:09.406Z,100399.44
2022-09-27T13:55:45.681Z,100387.84
2022-09-27T13:58:34.478Z,100399.25
2022-09-27T14:01:05.363Z,100391.66
2022-09-27T14:03:35.660Z,100393.06
2022-09-27T14:06:08.608Z,100395.03
2022-09-27T14:08:40.058Z,100391.09
2022-09-27T14:11:12.337Z,100386.59
2022-09-27T14:13:40.426Z,100389.47
2022-09-27T14:16:11.014Z,100396.44
2022-09-27T14:18:44.730Z,100398.56
2022-09-27T14:21:18.645Z,100400.28
2022-09-27T14:23:46.656Z,100392.97
2022-09-27T14:26:25.985Z,100392.31
2022-09-27T14:28:53.987Z,100381.88
2022-09-27T14:31:24.422Z,100377.72
2022-09-27T14:33:52.546Z,100376.59
2022-09-27T14:36:44.033Z,100374.69
2022-09-27T14:39:23.006Z,100363.31
2022-09-27T14:41:51.018Z,100363.88
2022-09-27T14:44:19.543Z,100364.31
2022-09-27T14:46:48.995Z,100358.22
2022-09-27T14:49:22.289Z,100357.69
2022-09-27T14:51:52.471Z,100366.91
2022-09-27T14:54:22.252Z,100358.25
2022-09-27T14:56:53.623Z,100358.06
2022-09-27T14:59:27.186Z,100354.31
2022-09-27T15:01:56.481Z,100343.81
2022-09-27T15:04:24.677Z,100329.78
2022-09-27T15:06:52.712Z,100329.56
2022-09-27T15:09:20.673Z,100346.72
2022-09-27T15:11:51.659Z,100347.56
2022-09-27T15:14:20.392Z,100350.56
2022-09-27T15:16:48.516Z,100341.16
2022-09-27T15:19:18.964Z,100345.00
2022-09-27T15:21:47.087Z,100345.13
2022-09-27T15:24:40.600Z,100347.16
2022-09-27T15:27:15.050Z,100342.56
2022-09-27T15:29:43.176Z,100338.16
2022-09-27T15:32:15.769Z,100326.59
2022-09-27T15:34:45.127Z,100339.66
2022-09-27T15:37:26.134Z,100332.03
2022-09-27T15:39:54.089Z,100329.97
2022-09-27T15:42:22.082Z,100320.56
2022-09-27T15:44:50.555Z,100314.78
2022-09-27T15:47:58.366Z,100306.75
2022-09-27T15:50:38.619Z,100307.94
2022-09-27T15:53:07.071Z,100303.66
2022-09-27T15:55:37.213Z,100307.72
2022-09-27T15:58:07.725Z,100310.28
2022-09-27T16:00:36.070Z,100309.31
2022-09-27T16:03:04.195Z,100307.72
2022-09-27T16:05:33.304Z,100301.91
2022-09-27T16:08:02.958Z,100304.28
2022-09-27T16:10:33.873Z,100298.81
2022-09-27T16:13:01.857Z,100291.28
2022-09-27T16:15:29.817Z,100288.25
2022-09-27T16:17:57.895Z,100292.41
2022-09-27T16:20:27.185Z,100294.50
2022-09-27T16:22:55.521Z,100290.13
2022-09-27T16:25:24.882Z,100296.56
2022-09-27T16:27:53.753Z,100278.69
2022-09-27T16:30:21.801Z,100277.69
2022-09-27T16:32:49.761Z,100277.69
2022-09-27T16:35:18.885Z,100262.69
2022-09-27T16:37:46.975Z,100257.66
2022-09-27T16:40:15.375Z,100264.09
2022-09-27T16:42:44.786Z,100268.09
2022-09-27T16:45:18.234Z,100266.25
2022-09-27T16:47:46.974Z,100270.88
2022-09-27T16:50:32.304Z,100267.53
2022-09-27T16:53:00.399Z,100273.22
2022-09-27T16:55:28.854Z,100276.75
2022-09-27T16:58:00.734Z,100276.66
2022-09-27T17:00:28.954Z,100276.44
2022-09-27T17:02:56.888Z,100283.16
2022-09-27T17:05:25.290Z,100267.88
2022-09-27T17:07:53.351Z,100260.66
2022-09-27T17:10:21.262Z,100262.41
2022-09-27T17:12:49.374Z,100258.66
2022-09-27T17:15:18.765Z,100257.78
2022-09-27T17:17:50.061Z,100248.56
2022-09-27T17:20:18.206Z,100243.94
2022-09-27T17:22:46.139Z,100227.00
2022-09-27T17:25:14.071Z,100237.50
2022-09-27T17:27:42.008Z,100238.38
2022-09-27T17:30:10.889Z,100233.16
2022-09-27T17:32:40.297Z,100230.66
2022-09-27T17:35:09.430Z,100222.75
2022-09-27T17:37:37.376Z,100221.03
2022-09-27T17:40:06.020Z,100207.50
2022-09-27T17:42:34.440Z,100215.56
2022-09-27T17:45:02.367Z,100215.34
2022-09-27T17:47:47.774Z,100216.81
2022-09-27T17:50:27.165Z,100223.94
2022-09-27T17:52:55.100Z,100241.72
2022-09-27T17:55:23.058Z,100252.22
2022-09-27T17:57:51.409Z,100246.00
2022-09-27T18:00:20.320Z,100251.22
2022-09-27T18:02:48.919Z,100254.16
2022-09-27T18:05:21.306Z,100255.75
2022-09-27T18:07:50.006Z,100260.88
2022-09-27T18:10:18.736Z,100245.88
2022-09-27T18:12:47.496Z,100236.25
2022-09-27T18:15:17.054Z,100231.28
2022-09-27T18:17:45.881Z,100232.50
2022-09-27T18:20:13.820Z,100228.00
2022-09-27T18:22:43.089Z,100192.34
2022-09-27T18:25:12.034Z,100228.84
2022-09-27T18:27:40.433Z,100222.44
2022-09-27T18:30:09.741Z,100219.50
2022-09-27T18:32:37.612Z,100223.69
2022-09-27T18:35:07.002Z,100235.94
2022-09-27T18:37:35.032Z,100230.34
2022-09-27T18:40:04.578Z,100226.69
2022-09-27T18:42:32.546Z,100224.09
2022-09-27T18:45:00.454Z,100231.31
2022-09-27T18:47:28.435Z,100229.47
2022-09-27T18:49:56.383Z,100232.16
2022-09-27T18:52:24.363Z,100232.78
2022-09-27T18:54:52.303Z,100231.47
2022-09-27T18:57:22.954Z,100222.69
2022-09-27T18:59:50.850Z,100226.38
2022-09-27T19:02:19.532Z,100221.44
2022-09-27T19:04:47.542Z,100229.91
2022-09-27T19:07:15.510Z,100226.19
2022-09-27T19:09:43.436Z,100225.53
2022-09-27T19:12:11.509Z,100237.22
2022-09-27T19:14:41.172Z,100239.38
2022-09-27T19:17:09.146Z,100229.59
2022-09-27T19:19:37.093Z,100231.34
2022-09-27T19:22:05.663Z,100234.00
2022-09-27T19:24:33.543Z,100230.38
2022-09-27T19:27:01.544Z,100238.28
2022-09-27T19:29:29.594Z,100246.13
2022-09-27T19:31:58.883Z,100248.69
2022-09-27T19:34:26.976Z,100244.94
2022-09-27T19:36:55.384Z,100251.13
2022-09-27T19:39:23.309Z,100257.13
2022-09-27T19:41:51.341Z,100245.69
2022-09-27T19:44:19.304Z,100252.84
2022-09-27T19:46:47.334Z,100251.97
2022-09-27T19:49:18.889Z,100252.09
2022-09-27T19:51:46.942Z,100252.44
2022-09-27T19:54:15.113Z,100256.31
2022-09-27T19:56:43.093Z,100253.81
2022-09-27T19:59:11.909Z,100255.66
2022-09-27T20:01:41.333Z,100257.38
2022-09-27T20:04:09.339Z,100251.91
2022-09-27T20:06:38.656Z,100264.22
2022-09-27T20:09:06.607Z,100259.50
2022-09-27T20:11:34.848Z,100262.94
2022-09-27T20:14:02.805Z,100269.03
2022-09-27T20:16:30.799Z,100263.56
2022-09-27T20:19:00.037Z,100245.69
2022-09-27T20:21:28.840Z,100245.44
2022-09-27T20:23:58.348Z,100256.25
2022-09-27T20:26:27.160Z,100262.38
2022-09-27T20:28:56.995Z,100267.84
2022-09-27T20:31:25.865Z,100269.53
2022-09-27T20:33:53.817Z,100261.50
2022-09-27T20:36:22.930Z,100261.50
2022-09-27T20:38:51.671Z,100257.88
2022-09-27T20:41:21.778Z,100260.47
2022-09-27T20:43:49.860Z,100270.22
2022-09-27T20:46:18.634Z,100276.53
2022-09-27T20:48:47.084Z,100277.28
2022-09-27T20:51:15.319Z,100274.59
2022-09-27T20:53:43.274Z,100276.31
2022-09-27T20:56:17.053Z,100276.31
2022-09-27T20:58:46.365Z,100268.16
2022-09-27T21:01:14.387Z,100269.78
2022-09-27T21:03:42.321Z,100266.03
2022-09-27T21:06:10.266Z,100257.78
2022-09-27T21:08:38.177Z,100258.28
2022-09-27T21:11:08.268Z,100251.84
2022-09-27T21:13:36.464Z,100250.88
2022-09-27T21:16:06.226Z,100258.94
2022-09-27T21:18:34.240Z,100267.72
2022-09-27T21:21:03.732Z,100265.78
2022-09-27T21:23:31.766Z,100259.47
2022-09-27T21:26:04.770Z,100256.78
2022-09-27T21:28:34.397Z,100265.66
2022-09-27T21:31:08.483Z,100267.38
2022-09-27T21:33:36.489Z,100266.38
2022-09-27T21:36:04.747Z,100270.66
2022-09-27T21:38:32.753Z,100270.47
2022-09-27T21:41:01.853Z,100273.88
2022-09-27T21:43:30.685Z,100264.44
2022-09-27T21:46:07.132Z,100273.75
2022-09-27T21:48:35.236Z,100289.09
2022-09-27T21:51:05.494Z,100277.50
2022-09-27T21:53:33.667Z,100275.59
2022-09-27T21:56:01.969Z,100274.50
2022-09-27T21:58:29.944Z,100269.88
2022-09-27T22:00:57.858Z,100276.22
2022-09-27T22:03:27.216Z,100271.94
2022-09-27T22:05:55.140Z,100266.59
2022-09-27T22:08:24.150Z,100269.03
2022-09-27T22:10:52.147Z,100265.28
2022-09-27T22:13:20.027Z,100266.03
2022-09-27T22:15:50.431Z,100259.69
2022-09-27T22:18:18.439Z,100274.06
2022-09-27T22:20:47.799Z,100272.13
2022-09-27T22:23:15.731Z,100279.31
2022-09-27T22:25:43.666Z,100268.78
2022-09-27T22:28:11.593Z,100278.69
2022-09-27T22:30:39.538Z,100275.16
2022-09-27T22:33:07.686Z,100264.75
2022-09-27T22:35:35.579Z,100270.88
2022-09-27T22:38:04.881Z,100276.22
2022-09-27T22:40:32.809Z,100284.25
2022-09-27T22:43:00.717Z,100290.59
2022-09-27T22:45:28.648Z,100291.56
2022-09-27T22:47:56.658Z,100284.38
2022-09-27T22:50:24.691Z,100288.88
2022-09-27T22:52:52.567Z,100290.72
2022-09-27T22:55:21.824Z,100297.88
2022-09-27T22:57:49.704Z,100300.47
2022-09-27T23:00:17.644Z,100303.03
2022-09-27T23:02:46.028Z,100296.59
2022-09-27T23:05:13.937Z,100305.38
2022-09-27T23:07:41.903Z,100303.44
2022-09-27T23:10:10.227Z,100299.81
2022-09-27T23:12:39.528Z,100309.53
2022-09-27T23:15:08.828Z,100299.03
2022-09-27T23:17:36.711Z,100305.38
2022-09-27T23:20:05.020Z,100296.59
2022-09-27T23:22:33.405Z,100296.59
2022-09-27T23:25:01.918Z,100294.88
2022-09-27T23:27:45.275Z,100302.91
2022-09-27T23:30:15.231Z,100287.06
2022-09-27T23:32:44.828Z,100286.94
2022-09-27T23:35:12.814Z,100287.81
2022-09-27T23:37:40.744Z,100277.91
2022-09-27T23:40:09.988Z,100272.69
2022-09-27T23:42:37.865Z,100282.44
2022-09-27T23:45:06.626Z,100280.72
2022-09-27T23:47:35.859Z,100279.97
2022-09-27T23:50:03.841Z,100274.75
2022-09-27T23:52:31.756Z,100274.75
2022-09-27T23:54:59.723Z,100266.69
2022-09-27T23:57:27.705Z,100268.53
2022-09-27T23:59:55.598Z,100270.25
